Time;durP1;ratioP1;P1;durP2;ratioP2;P2;SDS_P1;SDS_P2;PMS_P1;PMS_P2;Temp;Humidity;BMP_temperature;BMP_pressure;BME280_temperature;BME280_humidity;BME280_pressure;Samples;Min_cycle;Max_cycle;Signal;HPM_P1;HPM_P2
2022/09/09 00:02:00;;;;;;;17.33;9.53;;;;;;;;;;5068228;28;20048;-61
2022/09/09 00:04:36;;;;;;;13.80;9.50;;;;;;;;;;5068325;28;20044;-61
2022/09/09 00:07:10;;;;;;;19.47;10.87;;;;;;;;;;5068708;28;20047;-61
2022/09/09 00:09:46;;;;;;;12.13;6.93;;;;;;;;;;5059912;28;20349;-62
2022/09/09 00:12:32;;;;;;;20.60;8.30;;;;;;;;;;5068081;28;20048;-61
2022/09/09 00:15:05;;;;;;;14.90;10.13;;;;;;;;;;5068460;28;20037;-61
2022/09/09 00:17:50;;;;;;;17.33;8.88;;;;;;;;;;5068528;28;20395;-61
2022/09/09 00:20:23;;;;;;;13.47;6.50;;;;;;;;;;5057494;28;21016;-61
2022/09/09 00:23:09;;;;;;;15.23;9.38;;;;;;;;;;5065397;28;20052;-61
2022/09/09 00:25:41;;;;;;;17.47;10.23;;;;;;;;;;5059747;28;20067;-61
2022/09/09 00:28:17;;;;;;;16.45;9.50;;;;;;;;;;5068498;28;20041;-61
2022/09/09 00:30:43;;;;;;;15.47;9.37;;;;;;;;;;5068023;28;20072;-61
2022/09/09 00:33:15;;;;;;;18.77;10.03;;;;;;;;;;5068484;28;20406;-61
2022/09/09 00:35:51;;;;;;;15.10;9.67;;;;;;;;;;5067759;28;20127;-61
2022/09/09 00:38:23;;;;;;;18.53;10.13;;;;;;;;;;5067932;28;20049;-61
2022/09/09 00:41:01;;;;;;;15.93;9.73;;;;;;;;;;5068437;28;20061;-61
2022/09/09 00:43:31;;;;;;;13.30;8.53;;;;;;;;;;5067766;28;20091;-61
2022/09/09 00:46:06;;;;;;;14.97;9.63;;;;;;;;;;5068212;28;20401;-61
2022/09/09 00:48:52;;;;;;;19.30;8.60;;;;;;;;;;5067518;28;20509;-61
2022/09/09 00:51:25;;;;;;;17.87;8.97;;;;;;;;;;5059792;28;20419;-61
2022/09/09 00:53:51;;;;;;;;;;;;;;;;;;5068385;28;20040;-61
2022/09/09 00:56:23;;;;;;;15.87;8.93;;;;;;;;;;5067654;28;19927;-61
2022/09/09 00:59:06;;;;;;;14.93;8.80;;;;;;;;;;5067991;28;20084;-61
2022/09/09 01:01:32;;;;;;;16.77;9.15;;;;;;;;;;5068032;28;20076;-61
2022/09/09 01:04:01;;;;;;;16.23;8.37;;;;;;;;;;5068055;28;20036;-61
2022/09/09 01:06:34;;;;;;;13.33;7.60;;;;;;;;;;5067910;28;20095;-61
2022/09/09 01:09:18;;;;;;;13.48;8.52;;;;;;;;;;5058053;28;20052;-61
2022/09/09 01:12:03;;;;;;;11.53;7.60;;;;;;;;;;5067428;28;20068;-61
2022/09/09 01:14:38;;;;;;;16.33;8.57;;;;;;;;;;5067982;28;20521;-61
2022/09/09 01:17:14;;;;;;;11.77;7.30;;;;;;;;;;5060355;28;20704;-61
2022/09/09 01:19:43;;;;;;;10.87;6.90;;;;;;;;;;5059171;28;20519;-61
2022/09/09 01:22:09;;;;;;;13.20;6.47;;;;;;;;;;5067952;28;20036;-60
2022/09/09 01:24:35;;;;;;;25.00;6.90;;;;;;;;;;5067744;28;20054;-61
2022/09/09 01:27:03;;;;;;;62.50;10.30;;;;;;;;;;5067684;28;20415;-61
2022/09/09 01:29:29;;;;;;;53.27;9.80;;;;;;;;;;5067869;28;20430;-62
2022/09/09 01:31:56;;;;;;;68.53;11.10;;;;;;;;;;5067714;28;20044;-62
2022/09/09 01:34:26;;;;;;;50.03;11.73;;;;;;;;;;5067280;28;20120;-62
2022/09/09 01:37:01;;;;;;;51.33;11.27;;;;;;;;;;5067944;28;20044;-62
2022/09/09 01:39:27;;;;;;;30.73;10.83;;;;;;;;;;5064998;28;20041;-62
2022/09/09 01:41:55;;;;;;;26.83;10.53;;;;;;;;;;5061509;28;20041;-62
2022/09/09 01:44:21;;;;;;;28.47;10.83;;;;;;;;;;5070121;28;20076;-62
2022/09/09 01:46:47;;;;;;;23.63;9.90;;;;;;;;;;5071169;28;20132;-62
2022/09/09 01:49:13;;;;;;;37.07;12.63;;;;;;;;;;5070879;28;20044;-62
2022/09/09 01:51:41;;;;;;;29.50;12.03;;;;;;;;;;5071225;28;20048;-62
2022/09/09 01:54:07;;;;;;;27.00;12.67;;;;;;;;;;5070779;28;20040;-62
2022/09/09 01:56:33;;;;;;;17.83;9.47;;;;;;;;;;5062122;28;20125;-62
2022/09/09 01:59:15;;;;;;;20.33;9.87;;;;;;;;;;5070873;28;20507;-63
2022/09/09 02:01:44;;;;;;;23.40;11.53;;;;;;;;;;5070118;28;20068;-62
2022/09/09 02:04:19;;;;;;;17.10;9.57;;;;;;;;;;5064610;28;20037;-63
2022/09/09 02:06:46;;;;;;;23.00;11.67;;;;;;;;;;5061534;28;20128;-62
2022/09/09 02:09:13;;;;;;;30.53;13.47;;;;;;;;;;5070558;28;20111;-62
2022/09/09 02:11:40;;;;;;;25.77;12.43;;;;;;;;;;5070177;28;20072;-62
2022/09/09 02:14:10;;;;;;;18.70;9.87;;;;;;;;;;5070305;28;20410;-63
2022/09/09 02:16:48;;;;;;;24.17;11.73;;;;;;;;;;5069574;28;20044;-63
2022/09/09 02:19:25;;;;;;;28.70;12.87;;;;;;;;;;5070276;28;20052;-63
2022/09/09 02:21:53;;;;;;;26.17;12.90;;;;;;;;;;5070073;28;20127;-62
2022/09/09 02:24:19;;;;;;;25.53;11.37;;;;;;;;;;5070061;28;20041;-63
2022/09/09 02:26:46;;;;;;;27.43;13.80;;;;;;;;;;5069803;28;20491;-63
2022/09/09 02:29:17;;;;;;;24.83;12.70;;;;;;;;;;5069850;28;20453;-63
2022/09/09 02:31:44;;;;;;;27.90;12.87;;;;;;;;;;5070041;28;20132;-62
2022/09/09 02:34:11;;;;;;;20.10;10.43;;;;;;;;;;5061075;28;20561;-63
2022/09/09 02:36:39;;;;;;;25.23;13.10;;;;;;;;;;5070259;28;20426;-63
2022/09/09 02:39:08;;;;;;;17.90;11.40;;;;;;;;;;5069636;28;20041;-63
2022/09/09 02:41:35;;;;;;;29.33;13.93;;;;;;;;;;5068628;28;20039;-63
2022/09/09 02:44:01;;;;;;;34.33;15.23;;;;;;;;;;5069913;28;20047;-63
2022/09/09 02:46:47;;;;;;;27.10;14.27;;;;;;;;;;5064591;28;20079;-63
2022/09/09 02:49:29;;;;;;;34.67;15.37;;;;;;;;;;5058938;28;20053;-63
2022/09/09 02:52:01;;;;;;;32.77;15.87;;;;;;;;;;5061439;28;20080;-63
2022/09/09 02:54:31;;;;;;;25.50;14.93;;;;;;;;;;5069290;28;20049;-63
2022/09/09 02:57:02;;;;;;;33.67;16.40;;;;;;;;;;5069600;28;20037;-63
2022/09/09 02:59:29;;;;;;;29.97;17.27;;;;;;;;;;5069801;28;20033;-63
2022/09/09 03:01:55;;;;;;;35.77;18.17;;;;;;;;;;5069772;28;20114;-63
2022/09/09 03:04:21;;;;;;;28.93;16.77;;;;;;;;;;5068867;28;20655;-63
2022/09/09 03:06:47;;;;;;;34.83;18.07;;;;;;;;;;5061585;28;20056;-63
2022/09/09 03:09:13;;;;;;;54.10;22.33;;;;;;;;;;5069397;28;20060;-63
2022/09/09 03:11:39;;;;;;;33.97;17.37;;;;;;;;;;5068948;28;20048;-63
2022/09/09 03:14:06;;;;;;;42.20;20.87;;;;;;;;;;5068803;28;20529;-63
2022/09/09 03:16:34;;;;;;;34.53;17.30;;;;;;;;;;5069075;28;20052;-63
2022/09/09 03:19:00;;;;;;;40.73;19.07;;;;;;;;;;5069207;28;20080;-63
2022/09/09 03:21:26;;;;;;;27.47;16.23;;;;;;;;;;5068071;28;20079;-63
2022/09/09 03:23:52;;;;;;;30.37;16.30;;;;;;;;;;5068523;28;20121;-63
2022/09/09 03:26:18;;;;;;;34.97;15.53;;;;;;;;;;5063374;28;20493;-63
2022/09/09 03:28:44;;;;;;;29.30;16.03;;;;;;;;;;5064944;28;20048;-63
2022/09/09 03:31:11;;;;;;;30.67;16.33;;;;;;;;;;5062975;28;20045;-63
2022/09/09 03:33:37;;;;;;;27.90;13.97;;;;;;;;;;5067058;28;20033;-63
2022/09/09 03:36:04;;;;;;;28.57;13.77;;;;;;;;;;5065278;28;20044;-62
2022/09/09 03:38:31;;;;;;;32.13;15.77;;;;;;;;;;5062597;28;20085;-63
2022/09/09 03:40:57;;;;;;;23.07;13.40;;;;;;;;;;5063236;28;20044;-63
2022/09/09 03:43:24;;;;;;;32.43;16.20;;;;;;;;;;5093456;28;20044;-63
2022/09/09 03:45:51;;;;;;;32.07;16.10;;;;;;;;;;5059719;28;20044;-63
2022/09/09 03:48:17;;;;;;;31.83;15.63;;;;;;;;;;5064867;28;20582;-63
2022/09/09 03:50:51;;;;;;;29.23;14.57;;;;;;;;;;5061133;28;20036;-63
2022/09/09 03:53:17;;;;;;;;;;;;;;;;;;5061997;28;20155;-63
2022/09/09 03:55:54;;;;;;;44.13;17.43;;;;;;;;;;5067936;28;19978;-63
2022/09/09 03:58:21;;;;;;;33.40;15.40;;;;;;;;;;5068238;28;20036;-62
2022/09/09 04:00:54;;;;;;;33.60;15.63;;;;;;;;;;5068687;28;20767;-63
2022/09/09 04:03:20;;;;;;;37.17;17.05;;;;;;;;;;5068565;28;20556;-63
2022/09/09 04:05:49;;;;;;;40.90;16.77;;;;;;;;;;5068212;28;20048;-63
2022/09/09 04:08:15;;;;;;;40.80;18.43;;;;;;;;;;5068562;28;20044;-63
2022/09/09 04:10:41;;;;;;;37.40;17.47;;;;;;;;;;5059343;28;20060;-63
2022/09/09 04:13:07;;;;;;;41.43;18.97;;;;;;;;;;5068454;28;20091;-63
2022/09/09 04:15:34;;;;;;;36.90;18.37;;;;;;;;;;5068128;28;20041;-63
2022/09/09 04:18:00;;;;;;;35.03;17.43;;;;;;;;;;5067945;28;20052;-63
2022/09/09 04:20:26;;;;;;;34.93;17.10;;;;;;;;;;5068099;28;20048;-62
2022/09/09 04:22:52;;;;;;;35.03;17.50;;;;;;;;;;5068209;28;20514;-63
2022/09/09 04:25:18;;;;;;;36.43;18.27;;;;;;;;;;5068370;28;20418;-63
2022/09/09 04:27:45;;;;;;;38.70;18.17;;;;;;;;;;5067020;28;20131;-62
2022/09/09 04:30:12;;;;;;;34.53;18.07;;;;;;;;;;5068011;28;20052;-63
2022/09/09 04:32:38;;;;;;;33.43;16.20;;;;;;;;;;5067438;28;20055;-63
2022/09/09 04:35:04;;;;;;;44.07;19.97;;;;;;;;;;5067976;28;20045;-63
2022/09/09 04:37:30;;;;;;;33.60;16.10;;;;;;;;;;5067988;28;20036;-63
2022/09/09 04:39:56;;;;;;;41.03;19.47;;;;;;;;;;5067851;28;20052;-63
2022/09/09 04:42:22;;;;;;;35.37;17.97;;;;;;;;;;5068052;28;20040;-63
2022/09/09 04:44:48;;;;;;;39.07;18.80;;;;;;;;;;5068374;28;20052;-63
2022/09/09 04:47:14;;;;;;;39.93;19.77;;;;;;;;;;5068174;28;20049;-63
2022/09/09 04:49:40;;;;;;;46.37;20.33;;;;;;;;;;5067632;28;20056;-63
2022/09/09 04:52:06;;;;;;;37.93;19.73;;;;;;;;;;5067672;28;20841;-63
2022/09/09 04:54:33;;;;;;;41.17;19.80;;;;;;;;;;5068043;28;20410;-63
2022/09/09 04:56:59;;;;;;;39.83;19.57;;;;;;;;;;5067239;28;20048;-63
2022/09/09 04:59:25;;;;;;;45.20;20.93;;;;;;;;;;5060586;28;20041;-63
2022/09/09 05:01:51;;;;;;;36.40;19.23;;;;;;;;;;5067733;28;20048;-63
2022/09/09 05:04:18;;;;;;;36.47;19.27;;;;;;;;;;5067441;28;20048;-63
2022/09/09 05:06:45;;;;;;;37.93;18.80;;;;;;;;;;5067742;28;20068;-63
2022/09/09 05:09:11;;;;;;;38.10;18.80;;;;;;;;;;5067442;28;20052;-63
2022/09/09 05:11:38;;;;;;;35.33;17.33;;;;;;;;;;5054489;28;20045;-62
2022/09/09 05:14:04;;;;;;;47.33;20.83;;;;;;;;;;5064294;28;20459;-62
2022/09/09 05:16:30;;;;;;;41.17;19.33;;;;;;;;;;5069464;28;20044;-63
2022/09/09 05:18:57;;;;;;;41.97;19.93;;;;;;;;;;5071019;28;20105;-63
2022/09/09 05:21:28;;;;;;;35.40;16.60;;;;;;;;;;5070221;28;20054;-63
2022/09/09 05:23:54;;;;;;;34.07;18.03;;;;;;;;;;5071328;28;20076;-63
2022/09/09 05:26:24;;;;;;;41.90;19.03;;;;;;;;;;5071030;28;20048;-63
2022/09/09 05:28:50;;;;;;;38.20;18.73;;;;;;;;;;5063159;28;20055;-63
2022/09/09 05:31:17;;;;;;;47.83;19.63;;;;;;;;;;5070621;28;20037;-63
2022/09/09 05:33:45;;;;;;;38.70;19.37;;;;;;;;;;5070878;28;20045;-62
2022/09/09 05:36:16;;;;;;;56.17;23.07;;;;;;;;;;5053062;28;20045;-63
2022/09/09 05:38:42;;;;;;;49.30;21.70;;;;;;;;;;5062961;28;20056;-63
2022/09/09 05:41:11;;;;;;;40.97;20.20;;;;;;;;;;5063641;28;20495;-63
2022/09/09 05:43:38;;;;;;;36.40;18.57;;;;;;;;;;5069102;28;20044;-63
2022/09/09 05:46:05;;;;;;;38.33;17.80;;;;;;;;;;5070436;28;20170;-63
2022/09/09 05:48:32;;;;;;;33.47;16.93;;;;;;;;;;5069303;28;20052;-63
2022/09/09 05:50:59;;;;;;;40.60;19.20;;;;;;;;;;5070953;28;20051;-63
2022/09/09 05:53:25;;;;;;;30.10;16.27;;;;;;;;;;5062098;28;20459;-62
2022/09/09 05:55:51;;;;;;;37.60;18.67;;;;;;;;;;5069878;28;20118;-62
2022/09/09 05:58:17;;;;;;;42.73;18.87;;;;;;;;;;5069943;28;20048;-63
2022/09/09 06:00:43;;;;;;;43.27;18.57;;;;;;;;;;5070473;28;20048;-63
2022/09/09 06:03:13;;;;;;;33.77;17.20;;;;;;;;;;5070599;28;20074;-63
2022/09/09 06:05:39;;;;;;;32.73;17.27;;;;;;;;;;5060007;28;20048;-63
2022/09/09 06:08:05;;;;;;;43.60;19.17;;;;;;;;;;5063551;28;20435;-63
2022/09/09 06:10:31;;;;;;;36.20;17.83;;;;;;;;;;5069552;28;20052;-63
2022/09/09 06:12:57;;;;;;;33.87;17.83;;;;;;;;;;5070057;28;20048;-62
2022/09/09 06:15:23;;;;;;;31.73;16.93;;;;;;;;;;5069854;28;20046;-63
2022/09/09 06:17:55;;;;;;;32.67;17.37;;;;;;;;;;5069777;28;20056;-62
2022/09/09 06:20:21;;;;;;;30.27;15.90;;;;;;;;;;5069776;28;20076;-62
2022/09/09 06:22:48;;;;;;;32.43;15.83;;;;;;;;;;5070053;28;20052;-63
2022/09/09 06:25:14;;;;;;;39.53;17.70;;;;;;;;;;5069422;28;20561;-63
2022/09/09 06:27:41;;;;;;;28.27;14.97;;;;;;;;;;5068882;28;20039;-63
2022/09/09 06:30:08;;;;;;;40.40;18.40;;;;;;;;;;5069681;28;20114;-62
2022/09/09 06:32:34;;;;;;;41.97;19.13;;;;;;;;;;5069256;28;20033;-63
2022/09/09 06:35:01;;;;;;;22.20;13.47;;;;;;;;;;5069688;28;20102;-63
2022/09/09 06:37:27;;;;;;;31.87;16.23;;;;;;;;;;5068881;28;20044;-62
2022/09/09 06:39:54;;;;;;;32.17;16.53;;;;;;;;;;5069453;28;20041;-63
2022/09/09 06:42:20;;;;;;;27.53;13.87;;;;;;;;;;5068946;28;20438;-63
2022/09/09 06:44:47;;;;;;;25.67;14.93;;;;;;;;;;5068279;28;20738;-62
2022/09/09 06:47:13;;;;;;;28.33;13.70;;;;;;;;;;5069880;28;20102;-61
2022/09/09 06:49:39;;;;;;;21.57;12.50;;;;;;;;;;5068809;28;20052;-62
2022/09/09 06:52:05;;;;;;;33.00;16.13;;;;;;;;;;5069567;28;20049;-63
2022/09/09 06:54:36;;;;;;;25.37;13.67;;;;;;;;;;5069479;28;20040;-63
2022/09/09 06:57:02;;;;;;;27.60;13.70;;;;;;;;;;5068630;28;20135;-61
2022/09/09 06:59:30;;;;;;;24.57;12.70;;;;;;;;;;5067315;28;20697;-61
2022/09/09 07:01:56;;;;;;;27.73;14.13;;;;;;;;;;5069450;28;20043;-61
2022/09/09 07:04:22;;;;;;;23.10;13.17;;;;;;;;;;5069214;28;20056;-62
2022/09/09 07:06:48;;;;;;;17.83;11.53;;;;;;;;;;5069174;28;20047;-62
2022/09/09 07:09:16;;;;;;;18.67;11.93;;;;;;;;;;5069055;28;20059;-62
2022/09/09 07:11:43;;;;;;;18.20;11.57;;;;;;;;;;5068913;28;20059;-61
2022/09/09 07:14:12;;;;;;;23.10;11.47;;;;;;;;;;5060146;28;20180;-61
2022/09/09 07:16:39;;;;;;;17.23;11.07;;;;;;;;;;5068861;28;20094;-62
2022/09/09 07:19:05;;;;;;;19.33;11.63;;;;;;;;;;5063718;28;20045;-61
2022/09/09 07:21:32;;;;;;;18.27;11.20;;;;;;;;;;5066790;28;20044;-62
2022/09/09 07:23:58;;;;;;;21.20;11.63;;;;;;;;;;5069355;28;20045;-63
2022/09/09 07:26:26;;;;;;;20.37;11.33;;;;;;;;;;5069131;28;20070;-62
2022/09/09 07:28:53;;;;;;;13.30;9.37;;;;;;;;;;5069301;28;20052;-62
2022/09/09 07:31:21;;;;;;;23.87;12.83;;;;;;;;;;5068849;28;20040;-62
2022/09/09 07:33:48;;;;;;;21.50;11.00;;;;;;;;;;5069022;28;20497;-62
2022/09/09 07:36:22;;;;;;;12.87;10.17;;;;;;;;;;5068680;28;20048;-62
2022/09/09 07:38:51;;;;;;;19.67;10.53;;;;;;;;;;5068080;28;20109;-62
2022/09/09 07:41:19;;;;;;;17.37;10.30;;;;;;;;;;5067733;28;20052;-62
2022/09/09 07:43:47;;;;;;;18.97;9.67;;;;;;;;;;5068531;28;20044;-62
2022/09/09 07:46:14;;;;;;;13.90;8.70;;;;;;;;;;5068457;28;20048;-62
2022/09/09 07:48:44;;;;;;;14.60;9.13;;;;;;;;;;5068345;28;20102;-62
2022/09/09 07:51:11;;;;;;;18.63;9.17;;;;;;;;;;5068474;28;20044;-62
2022/09/09 07:53:40;;;;;;;15.60;8.63;;;;;;;;;;5068316;28;20037;-62
2022/09/09 07:56:10;;;;;;;21.20;9.10;;;;;;;;;;5068359;28;20037;-62
2022/09/09 07:58:37;;;;;;;14.53;8.70;;;;;;;;;;5068360;28;20048;-62
2022/09/09 08:01:07;;;;;;;21.23;9.73;;;;;;;;;;5067664;28;20071;-62
2022/09/09 08:03:33;;;;;;;14.87;7.43;;;;;;;;;;5068337;28;20810;-62
2022/09/09 08:06:03;;;;;;;17.83;7.93;;;;;;;;;;5068375;28;20078;-62
2022/09/09 08:08:30;;;;;;;14.30;7.03;;;;;;;;;;5068007;28;20120;-62
2022/09/09 08:11:02;;;;;;;13.43;6.80;;;;;;;;;;5067852;28;20057;-62
2022/09/09 08:13:28;;;;;;;15.65;7.03;;;;;;;;;;5061225;28;20486;-62
2022/09/09 08:15:54;;;;;;;13.50;6.13;;;;;;;;;;5068469;28;20047;-62
2022/09/09 08:18:20;;;;;;;16.03;6.30;;;;;;;;;;5067828;28;20041;-62
2022/09/09 08:20:46;;;;;;;16.17;6.93;;;;;;;;;;5068017;28;20041;-62
2022/09/09 08:23:12;;;;;;;12.80;6.17;;;;;;;;;;5067815;28;20094;-62
2022/09/09 08:25:38;;;;;;;9.67;5.30;;;;;;;;;;5068083;28;20044;-62
2022/09/09 08:28:04;;;;;;;9.37;4.97;;;;;;;;;;5068042;28;20421;-62
2022/09/09 08:30:30;;;;;;;13.27;4.90;;;;;;;;;;5068023;28;20040;-63
2022/09/09 08:32:56;;;;;;;13.37;5.13;;;;;;;;;;5067888;28;20118;-62
2022/09/09 08:35:22;;;;;;;13.10;4.10;;;;;;;;;;5067837;28;20044;-62
2022/09/09 08:37:48;;;;;;;10.23;4.27;;;;;;;;;;5068231;28;20123;-62
2022/09/09 08:40:21;;;;;;;11.73;3.97;;;;;;;;;;5059424;28;20056;-62
2022/09/09 08:42:49;;;;;;;12.02;4.20;;;;;;;;;;5067549;28;20045;-62
2022/09/09 08:45:15;;;;;;;10.77;3.90;;;;;;;;;;5067678;28;20115;-62
2022/09/09 08:47:52;;;;;;;12.90;4.57;;;;;;;;;;5067847;28;20048;-62
2022/09/09 08:50:21;;;;;;;12.80;4.20;;;;;;;;;;5067358;28;20044;-62
2022/09/09 08:52:47;;;;;;;9.73;4.23;;;;;;;;;;5066269;28;20063;-62
2022/09/09 08:55:33;;;;;;;11.83;4.23;;;;;;;;;;5062770;28;20045;-62
2022/09/09 08:58:01;;;;;;;9.70;3.83;;;;;;;;;;5071087;28;20063;-62
2022/09/09 09:01:06;;;;;;;12.60;4.30;;;;;;;;;;5071112;28;20086;-61
2022/09/09 09:03:32;;;;;;;7.67;3.63;;;;;;;;;;4989902;28;20128;-61
2022/09/09 09:06:13;;;;;;;7.87;3.40;;;;;;;;;;4989849;28;20082;-61
2022/09/09 09:08:45;;;;;;;8.77;3.63;;;;;;;;;;5037422;28;20052;-61
2022/09/09 09:11:11;;;;;;;12.90;3.83;;;;;;;;;;5062978;28;20089;-61
2022/09/09 09:13:55;;;;;;;11.27;3.60;;;;;;;;;;5071561;28;20068;-61
2022/09/09 09:16:27;;;;;;;11.27;3.70;;;;;;;;;;5071123;28;20052;-61
2022/09/09 09:18:54;;;;;;;10.17;3.30;;;;;;;;;;5069503;28;20058;-62
2022/09/09 09:21:37;;;;;;;7.70;3.47;;;;;;;;;;5070998;28;20044;-61
2022/09/09 09:24:06;;;;;;;14.57;4.57;;;;;;;;;;5071699;28;20036;-61
2022/09/09 09:26:34;;;;;;;8.67;2.93;;;;;;;;;;5071529;28;20055;-61
2022/09/09 09:29:02;;;;;;;9.97;3.47;;;;;;;;;;5071572;28;20064;-61
2022/09/09 09:31:28;;;;;;;9.50;2.50;;;;;;;;;;5071477;28;20048;-61
2022/09/09 09:33:55;;;;;;;9.00;2.80;;;;;;;;;;5069655;28;20395;-61
2022/09/09 09:36:24;;;;;;;11.43;2.70;;;;;;;;;;5070504;28;20044;-61
2022/09/09 09:39:00;;;;;;;8.13;2.37;;;;;;;;;;5071118;28;20051;-60
2022/09/09 09:41:30;;;;;;;8.97;2.83;;;;;;;;;;5069760;28;20040;-60
2022/09/09 09:43:56;;;;;;;9.67;2.13;;;;;;;;;;5070969;28;20119;-60
2022/09/09 09:46:23;;;;;;;10.20;2.43;;;;;;;;;;5070801;28;20072;-61
2022/09/09 09:49:05;;;;;;;9.63;2.47;;;;;;;;;;5059208;28;20506;-60
2022/09/09 09:51:33;;;;;;;9.67;2.63;;;;;;;;;;5067653;28;20052;-60
2022/09/09 09:54:18;;;;;;;7.43;2.50;;;;;;;;;;5071006;28;20047;-60
2022/09/09 09:56:45;;;;;;;8.27;2.03;;;;;;;;;;5070475;28;20072;-61
2022/09/09 09:59:34;;;;;;;10.70;2.73;;;;;;;;;;5070650;28;20045;-61
2022/09/09 10:02:18;;;;;;;8.27;2.10;;;;;;;;;;5063254;28;20520;-61
2022/09/09 10:04:47;;;;;;;7.90;2.60;;;;;;;;;;5069489;28;20055;-59
2022/09/09 10:07:17;;;;;;;11.87;3.23;;;;;;;;;;5070942;28;20098;-61
2022/09/09 10:09:43;;;;;;;5.57;2.07;;;;;;;;;;5070170;28;20088;-61
2022/09/09 10:12:32;;;;;;;13.13;2.30;;;;;;;;;;5069963;28;20075;-61
2022/09/09 10:15:17;;;;;;;9.53;2.40;;;;;;;;;;5062701;28;20053;-60
2022/09/09 10:18:02;;;;;;;8.70;2.40;;;;;;;;;;5070230;28;20415;-60
2022/09/09 10:20:28;;;;;;;11.40;2.40;;;;;;;;;;5070206;28;20123;-60
2022/09/09 10:23:04;;;;;;;6.77;1.80;;;;;;;;;;5070264;28;20170;-61
2022/09/09 10:25:33;;;;;;;8.37;1.87;;;;;;;;;;5068757;28;20079;-61
2022/09/09 10:28:18;;;;;;;4.63;1.73;;;;;;;;;;5069983;28;20044;-60
2022/09/09 10:31:02;;;;;;;12.73;2.73;;;;;;;;;;5069823;28;20105;-60
2022/09/09 10:33:37;;;;;;;8.17;1.90;;;;;;;;;;5069953;28;20128;-60
2022/09/09 10:36:10;;;;;;;7.83;1.70;;;;;;;;;;5069768;28;20036;-60
2022/09/09 10:38:38;;;;;;;9.23;1.98;;;;;;;;;;5069315;28;20127;-60
2022/09/09 10:41:28;;;;;;;10.73;1.97;;;;;;;;;;5061928;28;20079;-60
2022/09/09 10:43:55;;;;;;;11.13;2.17;;;;;;;;;;5031869;28;20052;-60
2022/09/09 10:46:35;;;;;;;9.33;2.30;;;;;;;;;;5069398;28;20151;-60
2022/09/09 10:49:20;;;;;;;6.53;1.80;;;;;;;;;;5069309;28;20146;-60
2022/09/09 10:52:05;;;;;;;8.67;2.43;;;;;;;;;;5068862;28;20055;-60
2022/09/09 10:54:42;;;;;;;7.67;2.10;;;;;;;;;;5060938;28;20262;-60
2022/09/09 10:57:16;;;;;;;8.40;1.90;;;;;;;;;;5068139;28;20441;-60
2022/09/09 10:59:44;;;;;;;9.57;1.97;;;;;;;;;;5069417;28;20066;-60
2022/09/09 11:02:10;;;;;;;7.07;2.03;;;;;;;;;;5061679;28;20036;-60
2022/09/09 11:04:40;;;;;;;7.70;1.90;;;;;;;;;;5069604;28;20051;-60
2022/09/09 11:07:09;;;;;;;7.43;2.13;;;;;;;;;;5068931;28;20048;-60
2022/09/09 11:09:39;;;;;;;8.33;2.00;;;;;;;;;;5069583;28;20045;-60
2022/09/09 11:12:06;;;;;;;10.57;2.00;;;;;;;;;;5068878;28;20067;-60
2022/09/09 11:14:36;;;;;;;9.70;2.10;;;;;;;;;;5069354;28;20083;-61
2022/09/09 11:17:04;;;;;;;9.37;2.10;;;;;;;;;;5068849;28;20048;-60
2022/09/09 11:19:40;;;;;;;10.80;2.00;;;;;;;;;;5069069;28;20533;-60
2022/09/09 11:22:09;;;;;;;11.80;2.00;;;;;;;;;;5067098;28;20573;-60
2022/09/09 11:24:40;;;;;;;6.87;1.87;;;;;;;;;;5068723;28;20102;-60
2022/09/09 11:27:16;;;;;;;8.17;1.80;;;;;;;;;;5068787;28;20059;-60
2022/09/09 11:29:43;;;;;;;7.80;2.60;;;;;;;;;;5068834;28;20510;-59
2022/09/09 11:32:16;;;;;;;8.93;2.47;;;;;;;;;;5068362;28;20575;-59
2022/09/09 11:34:52;;;;;;;5.25;1.52;;;;;;;;;;5068909;28;20040;-60
2022/09/09 11:37:25;;;;;;;6.70;1.70;;;;;;;;;;5068144;28;20037;-60
2022/09/09 11:39:51;;;;;;;;;;;;;;;;;;5068991;28;20048;-60
2022/09/09 11:42:19;;;;;;;9.70;2.17;;;;;;;;;;5068548;28;20268;-60
2022/09/09 11:44:45;;;;;;;5.97;2.23;;;;;;;;;;5063677;28;20049;-60
2022/09/09 11:47:31;;;;;;;10.70;2.23;;;;;;;;;;5068220;28;20499;-60
2022/09/09 11:50:09;;;;;;;4.73;1.90;;;;;;;;;;5060524;28;20514;-59
2022/09/09 11:52:41;;;;;;;7.47;1.73;;;;;;;;;;5068501;28;20071;-61
2022/09/09 11:55:12;;;;;;;9.00;1.83;;;;;;;;;;5066744;28;20102;-61
2022/09/09 11:57:38;;;;;;;7.30;1.80;;;;;;;;;;5067948;28;20048;-61
2022/09/09 12:00:05;;;;;;;7.47;1.73;;;;;;;;;;5067650;28;20084;-61
2022/09/09 12:02:31;;;;;;;7.60;1.63;;;;;;;;;;5068370;28;20127;-61
2022/09/09 12:05:12;;;;;;;8.40;1.40;;;;;;;;;;5068746;28;20057;-61
2022/09/09 12:07:43;;;;;;;7.20;1.50;;;;;;;;;;5060768;28;20047;-61
2022/09/09 12:10:19;;;;;;;6.57;1.73;;;;;;;;;;5059766;28;20063;-61
2022/09/09 12:12:45;;;;;;;5.17;1.53;;;;;;;;;;5060882;28;20041;-61
2022/09/09 12:15:11;;;;;;;7.53;1.60;;;;;;;;;;5067157;28;20423;-58
2022/09/09 12:17:47;;;;;;;4.63;1.47;;;;;;;;;;5065120;28;20113;-58
2022/09/09 12:20:15;;;;;;;7.70;1.23;;;;;;;;;;5065810;28;20053;-58
2022/09/09 12:22:53;;;;;;;6.20;1.60;;;;;;;;;;5067543;28;20032;-58
2022/09/09 12:25:38;;;;;;;6.77;1.43;;;;;;;;;;5066842;28;20044;-58
2022/09/09 12:28:24;;;;;;;7.63;1.50;;;;;;;;;;5068245;28;20094;-58
2022/09/09 12:30:53;;;;;;;7.63;1.60;;;;;;;;;;5067439;28;20044;-59
2022/09/09 12:33:21;;;;;;;4.93;1.70;;;;;;;;;;5067369;28;20036;-61
2022/09/09 12:35:54;;;;;;;8.33;1.30;;;;;;;;;;5067727;28;20123;-61
2022/09/09 12:38:26;;;;;;;8.75;1.92;;;;;;;;;;5067180;28;20532;-61
2022/09/09 12:40:58;;;;;;;5.33;1.47;;;;;;;;;;5067984;28;20163;-59
2022/09/09 12:43:26;;;;;;;7.38;2.80;;;;;;;;;;5059136;28;20450;-59
2022/09/09 12:45:57;;;;;;;7.37;1.77;;;;;;;;;;5067719;28;20045;-59
2022/09/09 12:48:26;;;;;;;8.13;1.93;;;;;;;;;;5067741;28;20051;-60
2022/09/09 12:50:56;;;;;;;4.97;1.27;;;;;;;;;;5067283;28;20245;-59
2022/09/09 12:53:51;;;;;;;6.07;1.30;;;;;;;;;;5059380;28;20120;-60
2022/09/09 12:56:22;;;;;;;4.87;1.30;;;;;;;;;;5049764;28;20526;-59
2022/09/09 12:58:51;;;;;;;6.50;1.57;;;;;;;;;;5067733;28;20037;-59
2022/09/09 13:01:28;;;;;;;6.13;1.37;;;;;;;;;;5067621;28;20059;-59
2022/09/09 13:03:54;;;;;;;4.37;1.20;;;;;;;;;;5067442;28;20051;-59
2022/09/09 13:06:22;;;;;;;6.13;1.30;;;;;;;;;;5067626;28;20052;-59
2022/09/09 13:08:49;;;;;;;5.07;1.67;;;;;;;;;;5067870;28;20045;-59
2022/09/09 13:11:18;;;;;;;6.47;1.27;;;;;;;;;;5067554;28;20061;-59
2022/09/09 13:13:50;;;;;;;6.77;1.60;;;;;;;;;;5067520;28;20052;-59
2022/09/09 13:16:21;;;;;;;6.47;1.50;;;;;;;;;;5067935;28;20600;-59
2022/09/09 13:18:47;;;;;;;7.20;2.03;;;;;;;;;;5059971;28;20052;-59
2022/09/09 13:21:14;;;;;;;6.00;1.00;;;;;;;;;;5067456;28;20052;-59
2022/09/09 13:23:40;;;;;;;3.67;1.10;;;;;;;;;;5066298;28;20043;-59
2022/09/09 13:26:23;;;;;;;5.53;1.50;;;;;;;;;;5067749;28;20392;-60
2022/09/09 13:28:49;;;;;;;3.70;1.45;;;;;;;;;;5067643;28;20047;-60
2022/09/09 13:31:27;;;;;;;5.27;2.13;;;;;;;;;;5067785;28;20506;-60
2022/09/09 13:33:53;;;;;;;7.13;2.30;;;;;;;;;;5067295;28;20048;-60
2022/09/09 13:36:28;;;;;;;5.73;2.10;;;;;;;;;;5059143;28;20049;-60
2022/09/09 13:38:56;;;;;;;6.77;1.90;;;;;;;;;;5070817;28;20098;-60
2022/09/09 13:41:28;;;;;;;5.30;1.53;;;;;;;;;;5071550;28;20044;-60
2022/09/09 13:43:55;;;;;;;6.43;1.70;;;;;;;;;;5070842;28;20045;-60
2022/09/09 13:46:35;;;;;;;4.90;1.40;;;;;;;;;;5071160;28;20072;-60
2022/09/09 13:49:03;;;;;;;5.10;1.33;;;;;;;;;;5069781;28;20084;-60
2022/09/09 13:51:50;;;;;;;8.53;1.40;;;;;;;;;;5070763;28;20854;-60
2022/09/09 13:54:17;;;;;;;6.33;1.10;;;;;;;;;;5070227;28;20877;-59
2022/09/09 13:56:44;;;;;;;5.57;1.23;;;;;;;;;;5069456;28;20067;-60
2022/09/09 13:59:12;;;;;;;3.20;1.10;;;;;;;;;;5070898;28;20134;-60
2022/09/09 14:01:38;;;;;;;3.47;0.90;;;;;;;;;;5067079;28;20040;-61
2022/09/09 14:04:08;;;;;;;3.77;0.90;;;;;;;;;;5070509;28;20190;-60
2022/09/09 14:06:37;;;;;;;5.50;1.03;;;;;;;;;;5070667;28;20036;-59
2022/09/09 14:09:03;;;;;;;2.83;0.70;;;;;;;;;;5070673;28;20049;-59
2022/09/09 14:11:29;;;;;;;3.90;1.00;;;;;;;;;;5069359;28;20053;-59
2022/09/09 14:13:55;;;;;;;2.07;0.93;;;;;;;;;;5061986;28;20138;-60
2022/09/09 14:16:21;;;;;;;4.37;1.10;;;;;;;;;;5070304;28;20048;-59
2022/09/09 14:18:47;;;;;;;5.43;1.00;;;;;;;;;;5069948;28;20056;-59
2022/09/09 14:21:15;;;;;;;4.47;0.80;;;;;;;;;;5072735;28;20367;-59
2022/09/09 14:23:41;;;;;;;6.15;1.45;;;;;;;;;;5075096;28;20048;-59
2022/09/09 14:26:08;;;;;;;3.38;0.98;;;;;;;;;;5067445;28;20437;-59
2022/09/09 14:28:35;;;;;;;3.80;1.35;;;;;;;;;;5068999;28;20036;-59
2022/09/09 14:31:01;;;;;;;2.20;0.65;;;;;;;;;;5068464;28;20068;-59
2022/09/09 14:33:31;;;;;;;2.97;1.00;;;;;;;;;;5070130;28;20045;-59
2022/09/09 14:36:01;;;;;;;4.57;1.33;;;;;;;;;;5068342;28;20044;-59
2022/09/09 14:38:31;;;;;;;4.20;1.10;;;;;;;;;;5068529;28;20052;-59
2022/09/09 14:40:58;;;;;;;3.87;0.80;;;;;;;;;;5068821;28;20049;-59
2022/09/09 14:43:24;;;;;;;3.33;1.20;;;;;;;;;;5067558;28;20045;-59
2022/09/09 14:45:51;;;;;;;2.67;1.07;;;;;;;;;;5069849;28;20056;-60
2022/09/09 14:48:17;;;;;;;5.50;1.10;;;;;;;;;;5067353;28;20083;-60